Time;durP1;ratioP1;P1;durP2;ratioP2;P2;SDS_P1;SDS_P2;PMS_P1;PMS_P2;Temp;Humidity;BMP_temperature;BMP_pressure;BME280_temperature;BME280_humidity;BME280_pressure;Samples;Min_cycle;Max_cycle;Signal;HPM_P1;HPM_P2
2023/06/27 00:00:19;;;;;;;7.70;2.70;;;14.90;99.90;;;;;;5072889;28;20020;-70
2023/06/27 00:02:46;;;;;;;5.90;2.50;;;14.90;99.90;;;;;;5072576;28;20084;-70
2023/06/27 00:05:12;;;;;;;14.60;3.40;;;14.90;99.90;;;;;;5072488;28;20020;-70
2023/06/27 00:07:38;;;;;;;5.07;2.25;;;14.90;99.90;;;;;;5072611;28;20543;-70
2023/06/27 00:10:04;;;;;;;5.07;3.15;;;14.80;99.90;;;;;;5072197;28;20017;-70
2023/06/27 00:12:32;;;;;;;4.53;2.60;;;14.80;99.90;;;;;;5072594;28;20029;-70
2023/06/27 00:14:57;;;;;;;7.63;3.13;;;14.80;99.90;;;;;;5072211;28;20017;-71
2023/06/27 00:17:23;;;;;;;4.90;2.60;;;14.80;99.90;;;;;;5072528;28;20043;-70
2023/06/27 00:19:49;;;;;;;7.47;2.78;;;14.80;99.90;;;;;;5072324;28;20074;-70
2023/06/27 00:22:15;;;;;;;7.93;2.83;;;14.90;99.90;;;;;;5071285;28;20367;-70
2023/06/27 00:24:44;;;;;;;7.28;2.65;;;14.90;99.90;;;;;;5072927;28;20024;-71
2023/06/27 00:27:09;;;;;;;6.78;3.33;;;15.00;99.90;;;;;;5071887;28;20437;-71
2023/06/27 00:29:35;;;;;;;6.05;2.53;;;15.00;99.90;;;;;;5072046;28;20017;-70
2023/06/27 00:32:01;;;;;;;6.65;2.42;;;15.10;99.90;;;;;;5066603;28;20040;-70
2023/06/27 00:34:26;;;;;;;4.18;2.08;;;15.20;99.90;;;;;;5052302;28;20017;-70
2023/06/27 00:36:52;;;;;;;7.28;2.88;;;15.20;99.90;;;;;;5051549;28;20021;-70
2023/06/27 00:39:17;;;;;;;8.40;2.55;;;15.30;99.90;;;;;;5067126;28;20017;-70
2023/06/27 00:41:43;;;;;;;5.38;2.95;;;15.30;99.90;;;;;;5071703;28;20500;-71
2023/06/27 00:44:08;;;;;;;8.55;3.20;;;15.50;99.90;;;;;;5070964;28;20550;-70
2023/06/27 00:46:36;;;;;;;5.35;2.67;;;15.50;99.90;;;;;;5051872;28;20478;-70
2023/06/27 00:49:03;;;;;;;6.78;2.58;;;15.60;99.90;;;;;;5069894;28;20027;-70
2023/06/27 00:51:29;;;;;;;7.07;3.10;;;15.60;99.90;;;;;;5071564;28;20036;-71
2023/06/27 00:53:56;;;;;;;5.25;2.47;;;15.70;99.90;;;;;;5069780;28;20074;-70
2023/06/27 00:56:21;;;;;;;8.35;2.88;;;15.80;99.90;;;;;;5070660;28;20390;-70
2023/06/27 00:58:47;;;;;;;8.75;3.15;;;15.80;99.90;;;;;;5071526;28;20021;-71
2023/06/27 01:01:13;;;;;;;6.25;2.60;;;15.90;99.90;;;;;;5071195;28;20442;-71
2023/06/27 01:03:38;;;;;;;7.32;3.10;;;15.90;99.90;;;;;;5071324;28;20032;-70
2023/06/27 01:06:14;;;;;;;6.85;3.08;;;15.90;99.90;;;;;;5071155;28;20064;-70
2023/06/27 01:08:51;;;;;;;4.07;2.63;;;16.00;99.90;;;;;;5071347;28;20017;-71
2023/06/27 01:11:27;;;;;;;9.32;3.03;;;16.00;99.90;;;;;;5069938;28;20024;-70
2023/06/27 01:13:56;;;;;;;9.20;2.83;;;16.10;99.90;;;;;;5069527;28;20512;-71
2023/06/27 01:16:27;;;;;;;7.35;3.22;;;16.10;99.90;;;;;;5069969;28;20020;-70
2023/06/27 01:18:54;;;;;;;6.10;3.05;;;16.10;99.90;;;;;;5070618;28;20056;-70
2023/06/27 01:21:24;;;;;;;7.63;2.88;;;16.20;99.90;;;;;;5070982;28;20043;-70
2023/06/27 01:24:06;;;;;;;7.03;2.83;;;16.10;99.90;;;;;;5070892;28;20028;-71
2023/06/27 01:26:31;;;;;;;7.68;3.25;;;16.10;99.90;;;;;;5071064;28;20077;-70
2023/06/27 01:28:57;;;;;;;5.03;2.78;;;16.10;99.90;;;;;;5069249;28;20017;-70
2023/06/27 01:31:46;;;;;;;6.50;2.97;;;16.10;99.90;;;;;;5070683;28;20124;-70
2023/06/27 01:34:31;;;;;;;8.55;2.70;;;16.00;99.90;;;;;;5070730;28;20028;-71
2023/06/27 01:37:17;;;;;;;5.97;2.72;;;16.00;99.90;;;;;;5070392;28;20029;-70
2023/06/27 01:39:46;;;;;;;13.38;2.90;;;15.90;99.90;;;;;;5070506;28;20020;-70
2023/06/27 01:42:20;;;;;;;11.05;2.95;;;15.90;99.90;;;;;;5070077;28;20032;-70
2023/06/27 01:44:47;;;;;;;7.70;3.38;;;15.80;99.90;;;;;;5066060;28;20052;-70
2023/06/27 01:47:14;;;;;;;9.90;3.22;;;15.80;99.90;;;;;;5067871;28;20063;-70
2023/06/27 01:49:40;;;;;;;6.60;3.28;;;15.80;99.90;;;;;;5070716;28;20028;-70
2023/06/27 01:52:07;;;;;;;6.90;3.42;;;15.70;99.90;;;;;;5069141;28;20033;-70
2023/06/27 01:54:32;;;;;;;11.50;3.40;;;15.70;99.90;;;;;;5070665;28;20017;-70
2023/06/27 01:56:58;;;;;;;5.68;2.75;;;15.60;99.90;;;;;;5070150;28;20060;-70
2023/06/27 01:59:23;;;;;;;7.90;3.22;;;15.60;99.90;;;;;;5069388;28;20020;-70
2023/06/27 02:01:49;;;;;;;10.10;3.10;;;15.50;99.90;;;;;;5069789;28;20102;-70
2023/06/27 02:04:14;;;;;;;8.95;3.13;;;15.50;99.90;;;;;;5070662;28;20020;-70
2023/06/27 02:06:40;;;;;;;7.03;3.20;;;15.50;99.90;;;;;;5070566;28;20086;-70
2023/06/27 02:09:07;;;;;;;7.05;2.35;;;15.50;99.90;;;;;;5068683;28;20062;-70
2023/06/27 02:11:32;;;;;;;5.57;2.75;;;15.40;99.90;;;;;;5070312;28;20035;-70
2023/06/27 02:13:58;;;;;;;8.57;2.90;;;15.40;99.90;;;;;;5069920;28;20391;-70
2023/06/27 02:16:23;;;;;;;9.82;3.30;;;15.30;99.90;;;;;;5070633;28;20025;-70
2023/06/27 02:18:49;;;;;;;5.90;3.00;;;15.30;99.90;;;;;;5069990;28;20497;-70
2023/06/27 02:21:14;;;;;;;7.75;2.90;;;15.30;99.90;;;;;;5070372;28;20530;-70
2023/06/27 02:23:40;;;;;;;8.43;2.40;;;15.30;99.90;;;;;;5070429;28;20024;-70
2023/06/27 02:26:06;;;;;;;9.90;3.05;;;15.30;99.90;;;;;;5070077;28;20035;-70
2023/06/27 02:28:31;;;;;;;7.85;3.63;;;15.20;99.90;;;;;;5070304;28;20021;-70
2023/06/27 02:30:57;;;;;;;8.10;3.05;;;15.20;99.90;;;;;;5069767;28;20381;-70
2023/06/27 02:33:23;;;;;;;10.40;3.00;;;15.10;99.90;;;;;;5070253;28;20466;-70
2023/06/27 02:35:48;;;;;;;8.27;3.30;;;15.10;99.90;;;;;;5070101;28;20044;-70
2023/06/27 02:38:14;;;;;;;8.23;3.40;;;15.10;99.90;;;;;;5070616;28;20036;-70
2023/06/27 02:40:39;;;;;;;8.07;3.20;;;15.00;99.90;;;;;;5069933;28;20144;-70
2023/06/27 02:43:06;;;;;;;11.48;3.28;;;15.00;99.90;;;;;;5054846;28;20113;-70
2023/06/27 02:45:31;;;;;;;8.10;3.70;;;15.00;99.90;;;;;;5058808;28;20033;-70
2023/06/27 02:47:57;;;;;;;10.00;4.53;;;15.00;99.90;;;;;;5069828;28;20031;-70
2023/06/27 02:50:22;;;;;;;9.90;3.85;;;14.90;99.90;;;;;;5070470;28;20382;-70
2023/06/27 02:52:48;;;;;;;6.65;2.83;;;14.90;99.90;;;;;;5071233;28;20093;-70
2023/06/27 02:55:14;;;;;;;9.27;3.50;;;14.80;99.90;;;;;;5073728;28;20020;-70
2023/06/27 02:57:39;;;;;;;13.63;3.90;;;14.80;99.90;;;;;;5073688;28;20056;-70
2023/06/27 03:00:06;;;;;;;13.68;3.80;;;14.70;99.90;;;;;;5073446;28;20017;-70
2023/06/27 03:02:31;;;;;;;11.52;3.67;;;14.70;99.90;;;;;;5073230;28;20045;-70
2023/06/27 03:04:57;;;;;;;13.27;4.35;;;14.60;99.90;;;;;;5073349;28;20104;-70
2023/06/27 03:07:22;;;;;;;13.82;3.63;;;14.60;99.90;;;;;;5073624;28;20559;-70
2023/06/27 03:09:48;;;;;;;15.48;3.95;;;14.60;99.90;;;;;;5073493;28;20012;-70
2023/06/27 03:12:13;;;;;;;11.60;3.85;;;14.60;99.90;;;;;;5073377;28;20032;-70
2023/06/27 03:14:39;;;;;;;12.70;4.85;;;14.50;99.90;;;;;;5073407;28;20024;-70
2023/06/27 03:17:05;;;;;;;10.25;4.00;;;14.60;99.90;;;;;;5072997;28;20673;-70
2023/06/27 03:19:30;;;;;;;10.60;3.55;;;14.50;99.90;;;;;;5073252;28;20495;-70
2023/06/27 03:21:56;;;;;;;9.18;4.22;;;14.50;99.90;;;;;;5073074;28;20024;-70
2023/06/27 03:24:21;;;;;;;9.93;3.65;;;14.50;99.90;;;;;;5073227;28;20046;-70
2023/06/27 03:26:47;;;;;;;11.20;4.25;;;14.50;99.90;;;;;;5072956;28;20029;-70
2023/06/27 03:29:12;;;;;;;14.45;4.65;;;14.50;99.90;;;;;;5072808;28;20078;-70
2023/06/27 03:31:38;;;;;;;10.27;4.15;;;14.50;99.90;;;;;;5072952;28;20036;-70
2023/06/27 03:34:04;;;;;;;12.30;4.22;;;14.50;99.90;;;;;;5072680;28;20020;-70
2023/06/27 03:36:33;;;;;;;10.07;4.25;;;14.50;99.90;;;;;;5072968;28;20025;-70
2023/06/27 03:38:59;;;;;;;13.38;3.88;;;14.50;99.90;;;;;;5072791;28;20029;-70
2023/06/27 03:41:24;;;;;;;17.35;4.28;;;14.50;99.90;;;;;;5066586;28;20085;-70
2023/06/27 03:43:50;;;;;;;14.27;5.00;;;14.50;99.90;;;;;;5072736;28;20470;-69
2023/06/27 03:46:15;;;;;;;11.00;4.32;;;14.60;99.90;;;;;;5073088;28;20095;-69
2023/06/27 03:48:41;;;;;;;9.07;3.80;;;14.50;99.90;;;;;;5072879;28;20052;-69
2023/06/27 03:51:06;;;;;;;14.15;4.40;;;14.60;99.90;;;;;;5072530;28;20028;-69
2023/06/27 03:53:32;;;;;;;18.48;4.03;;;14.70;99.90;;;;;;5072994;28;20436;-69
2023/06/27 03:55:59;;;;;;;11.32;4.50;;;14.70;99.90;;;;;;5071922;28;20163;-70
2023/06/27 03:58:24;;;;;;;13.93;4.50;;;14.80;99.90;;;;;;5072822;28;20108;-69
2023/06/27 04:00:53;;;;;;;12.13;4.15;;;14.80;99.90;;;;;;5071999;28;20072;-70
2023/06/27 04:03:18;;;;;;;11.27;3.80;;;14.90;99.90;;;;;;5072429;28;20035;-69
2023/06/27 04:05:45;;;;;;;12.40;4.40;;;14.90;99.90;;;;;;5072743;28;20048;-70
2023/06/27 04:08:10;;;;;;;13.32;4.45;;;14.90;99.90;;;;;;5072306;28;20031;-69
2023/06/27 04:10:36;;;;;;;10.18;3.97;;;15.00;99.90;;;;;;5072346;28;20027;-69
2023/06/27 04:13:02;;;;;;;11.07;4.20;;;15.00;99.90;;;;;;5071861;28;20115;-70
2023/06/27 04:15:27;;;;;;;9.85;3.72;;;15.10;99.90;;;;;;5072110;28;20386;-69
2023/06/27 04:17:53;;;;;;;11.48;4.43;;;15.10;99.90;;;;;;5072306;28;20048;-69
2023/06/27 04:20:18;;;;;;;16.27;5.18;;;15.20;99.90;;;;;;5072372;28;20016;-69
2023/06/27 04:22:44;;;;;;;15.25;4.53;;;15.20;99.90;;;;;;5072208;28;20040;-69
2023/06/27 04:25:11;;;;;;;17.42;4.90;;;15.20;99.90;;;;;;5070247;28;20017;-69
2023/06/27 04:27:38;;;;;;;10.20;4.32;;;15.30;99.90;;;;;;5072326;28;20025;-69
2023/06/27 04:30:05;;;;;;;12.13;4.85;;;15.30;99.90;;;;;;5072061;28;20020;-69
2023/06/27 04:32:33;;;;;;;13.25;4.70;;;15.30;99.90;;;;;;5071789;28;20529;-69
2023/06/27 04:34:59;;;;;;;18.05;4.65;;;15.40;99.90;;;;;;5072035;28;20020;-70
2023/06/27 04:37:25;;;;;;;11.93;4.55;;;15.40;99.90;;;;;;5070683;28;20044;-69
2023/06/27 04:39:52;;;;;;;17.15;4.93;;;15.40;99.90;;;;;;5070531;28;20497;-70
2023/06/27 04:42:18;;;;;;;14.57;4.70;;;15.50;99.90;;;;;;5071890;28;20032;-69
2023/06/27 04:44:44;;;;;;;12.90;4.43;;;15.50;99.90;;;;;;5071879;28;20027;-70
2023/06/27 04:47:09;;;;;;;11.35;4.10;;;15.50;99.90;;;;;;5071702;28;20150;-70
2023/06/27 04:49:35;;;;;;;14.48;5.38;;;15.50;99.90;;;;;;5071741;28;20028;-70
2023/06/27 04:52:04;;;;;;;12.52;4.60;;;15.50;99.90;;;;;;5071272;28;20040;-70
2023/06/27 04:54:30;;;;;;;13.73;5.38;;;15.60;99.90;;;;;;5071410;28;20126;-71
2023/06/27 04:56:55;;;;;;;12.40;4.93;;;15.60;99.90;;;;;;5071575;28;20455;-70
2023/06/27 04:59:21;;;;;;;12.55;4.70;;;15.60;99.90;;;;;;5071492;28;20028;-70
2023/06/27 05:01:46;;;;;;;13.98;5.03;;;15.60;99.90;;;;;;5071160;28;20573;-71
2023/06/27 05:04:12;;;;;;;13.48;4.78;;;15.60;99.90;;;;;;5070984;28;20033;-70
2023/06/27 05:06:37;;;;;;;13.82;5.25;;;15.60;99.90;;;;;;5071327;28;20136;-71
2023/06/27 05:09:03;;;;;;;14.52;5.05;;;15.60;99.90;;;;;;5071131;28;20023;-70
2023/06/27 05:11:30;;;;;;;11.48;4.45;;;15.60;99.90;;;;;;5071317;28;20029;-71
2023/06/27 05:14:23;;;;;;;11.35;4.88;;;15.60;99.90;;;;;;5071380;28;20397;-72
2023/06/27 05:16:49;;;;;;;16.17;5.00;;;15.60;99.90;;;;;;5066789;28;20035;-70
2023/06/27 05:19:14;;;;;;;15.30;5.68;;;15.50;99.90;;;;;;5070161;28;20411;-70
2023/06/27 05:21:40;;;;;;;10.93;4.85;;;15.50;99.90;;;;;;5071442;28;20016;-70
2023/06/27 05:24:06;;;;;;;11.93;4.53;;;15.60;99.90;;;;;;5070901;28;20078;-69
2023/06/27 05:26:32;;;;;;;12.73;4.55;;;15.60;99.90;;;;;;5071364;28;20082;-69
2023/06/27 05:28:59;;;;;;;14.07;4.97;;;15.70;99.90;;;;;;5069661;28;20029;-69
2023/06/27 05:31:26;;;;;;;11.93;4.32;;;15.80;99.90;;;;;;5070881;28;20036;-69
2023/06/27 05:33:51;;;;;;;10.40;4.55;;;16.00;99.90;;;;;;5070724;28;20104;-69
2023/06/27 05:36:17;;;;;;;11.38;4.80;;;16.20;99.90;;;;;;5070703;28;20103;-69
2023/06/27 05:38:42;;;;;;;14.48;4.35;;;16.50;99.90;;;;;;5058426;28;20055;-69
2023/06/27 05:41:08;;;;;;;13.30;3.78;;;16.70;99.90;;;;;;5057610;28;20375;-70
2023/06/27 05:43:36;;;;;;;10.30;3.97;;;16.90;99.90;;;;;;5069483;28;20117;-69
2023/06/27 05:46:01;;;;;;;13.80;4.80;;;17.10;99.90;;;;;;5070741;28;20028;-70
2023/06/27 05:48:27;;;;;;;12.05;4.30;;;17.40;99.90;;;;;;5070916;28;20505;-69
2023/06/27 05:50:53;;;;;;;10.30;4.53;;;17.60;99.90;;;;;;5070732;28;20044;-69
2023/06/27 05:53:18;;;;;;;12.77;4.18;;;17.70;99.90;;;;;;5070858;28;20157;-70
2023/06/27 05:55:44;;;;;;;11.00;4.28;;;17.80;99.90;;;;;;5070678;28;20024;-70
2023/06/27 05:58:09;;;;;;;16.08;4.85;;;17.90;99.90;;;;;;5070473;28;20556;-70
2023/06/27 06:00:35;;;;;;;14.35;5.00;;;17.90;99.90;;;;;;5070547;28;20021;-70
2023/06/27 06:03:00;;;;;;;17.73;5.10;;;17.90;99.90;;;;;;5070272;28;20510;-70
2023/06/27 06:05:26;;;;;;;15.10;4.97;;;18.00;99.90;;;;;;5070681;28;20487;-70
2023/06/27 06:07:51;;;;;;;15.88;5.07;;;18.10;99.90;;;;;;5068684;28;20036;-69
2023/06/27 06:10:17;;;;;;;17.92;5.00;;;18.20;99.90;;;;;;5070989;28;20021;-70
2023/06/27 06:12:43;;;;;;;19.67;5.20;;;18.30;99.90;;;;;;5070646;28;20150;-70
2023/06/27 06:15:08;;;;;;;17.23;5.03;;;18.40;99.90;;;;;;5070213;28;20487;-70
2023/06/27 06:17:34;;;;;;;16.38;5.15;;;18.50;99.90;;;;;;5069984;28;20028;-70
2023/06/27 06:20:00;;;;;;;12.40;4.95;;;18.60;99.90;;;;;;5070200;28;20025;-70
2023/06/27 06:22:26;;;;;;;16.10;3.95;;;18.60;99.90;;;;;;5070335;28;20028;-70
2023/06/27 06:24:51;;;;;;;13.05;4.63;;;18.70;99.90;;;;;;5070277;28;20025;-70
2023/06/27 06:27:20;;;;;;;10.75;4.05;;;18.70;99.90;;;;;;5072596;28;20518;-72
2023/06/27 06:29:48;;;;;;;11.13;3.60;;;18.80;99.90;;;;;;5074683;28;20055;-71
2023/06/27 06:32:14;;;;;;;7.85;3.05;;;18.80;99.90;;;;;;5074457;28;20059;-70
2023/06/27 06:34:39;;;;;;;15.85;4.68;;;18.90;99.90;;;;;;5074329;28;20490;-70
2023/06/27 06:37:05;;;;;;;16.75;4.47;;;19.00;99.90;;;;;;5062991;28;20396;-70
2023/06/27 06:39:30;;;;;;;13.50;3.95;;;19.10;99.90;;;;;;5054578;28;20031;-70
2023/06/27 06:41:56;;;;;;;13.52;3.90;;;19.20;99.90;;;;;;5069522;28;20028;-70
2023/06/27 06:44:21;;;;;;;11.10;3.17;;;19.30;99.90;;;;;;5074616;28;20047;-70
2023/06/27 06:46:47;;;;;;;7.80;3.45;;;19.40;99.90;;;;;;5073146;28;20025;-70
2023/06/27 06:49:16;;;;;;;10.90;3.65;;;19.50;99.90;;;;;;5074140;28;20032;-70
2023/06/27 06:51:42;;;;;;;10.40;3.30;;;19.50;99.90;;;;;;5074050;28;20482;-71
2023/06/27 06:54:20;;;;;;;13.80;3.70;;;19.50;99.90;;;;;;5074066;28;20056;-71
2023/06/27 09:24:32;;;;;;;3.95;0.40;;;22.80;90.00;;;;;;4492978;28;20535;-70
2023/06/27 09:26:57;;;;;;;7.72;0.70;;;22.80;90.10;;;;;;5069558;28;20036;-71
2023/06/27 09:29:32;;;;;;;2.03;0.30;;;22.80;89.70;;;;;;5071442;28;20052;-71
2023/06/27 09:32:07;;;;;;;3.00;0.30;;;22.80;89.10;;;;;;5070525;28;20035;-71
2023/06/27 09:34:35;;;;;;;4.18;0.40;;;22.80;89.10;;;;;;5071467;28;20020;-71
2023/06/27 09:37:03;;;;;;;3.75;0.20;;;22.80;88.90;;;;;;5070725;28;20347;-71
2023/06/27 09:39:29;;;;;;;3.05;0.30;;;22.70;87.80;;;;;;5070102;28;20052;-71
2023/06/27 09:41:54;;;;;;;3.03;0.35;;;22.60;87.40;;;;;;5070627;28;20072;-71
2023/06/27 09:44:23;;;;;;;2.78;0.30;;;22.60;87.10;;;;;;5071353;28;20028;-71
2023/06/27 09:46:51;;;;;;;1.67;0.30;;;22.70;87.30;;;;;;5071275;28;20364;-71
2023/06/27 09:49:17;;;;;;;2.38;0.30;;;22.90;85.80;;;;;;5071314;28;20063;-71
2023/06/27 09:51:50;;;;;;;2.17;0.30;;;22.80;83.20;;;;;;5071337;28;20052;-71
2023/06/27 09:54:22;;;;;;;3.78;0.35;;;22.60;82.90;;;;;;5070786;28;20552;-70
2023/06/27 09:56:50;;;;;;;3.58;0.40;;;22.50;83.20;;;;;;5070886;28;20021;-71
2023/06/27 09:59:17;;;;;;;2.67;0.30;;;22.40;83.40;;;;;;5071083;28;20031;-71
2023/06/27 10:01:42;;;;;;;1.45;0.30;;;22.40;83.40;;;;;;5070260;28;20025;-71
2023/06/27 10:04:09;;;;;;;2.25;0.30;;;22.30;83.40;;;;;;5070813;28;20500;-71
2023/06/27 10:06:35;;;;;;;2.78;0.30;;;22.30;84.40;;;;;;5069569;28;20029;-71
2023/06/27 10:09:01;;;;;;;4.07;0.30;;;22.30;84.00;;;;;;5069164;28;20020;-71
2023/06/27 10:11:27;;;;;;;2.83;0.30;;;22.40;83.30;;;;;;5071236;28;20028;-71
2023/06/27 10:13:53;;;;;;;2.95;0.40;;;22.50;83.30;;;;;;5070248;28;20021;-70
2023/06/27 10:16:20;;;;;;;4.65;0.45;;;22.50;83.60;;;;;;5070967;28;20360;-71
2023/06/27 10:18:47;;;;;;;4.35;0.40;;;22.40;83.90;;;;;;5070787;28;20173;-70
2023/06/27 10:21:14;;;;;;;5.47;0.60;;;22.40;84.50;;;;;;5070796;28;20035;-71
2023/06/27 10:23:42;;;;;;;3.85;0.63;;;22.50;85.00;;;;;;5070625;28;20033;-73
2023/06/27 10:26:10;;;;;;;3.35;0.50;;;22.60;84.80;;;;;;5070108;28;20036;-71
2023/06/27 10:28:36;;;;;;;2.63;0.40;;;22.70;85.30;;;;;;5070850;28;20066;-71
2023/06/27 10:31:05;;;;;;;5.20;0.50;;;22.90;85.50;;;;;;5069839;28;20028;-71
2023/06/27 10:33:32;;;;;;;1.73;0.30;;;23.10;84.40;;;;;;5072322;28;20505;-72
2023/06/27 10:36:09;;;;;;;2.88;0.32;;;23.20;83.70;;;;;;5071244;28;20032;-71
2023/06/27 10:38:39;;;;;;;2.22;0.35;;;23.40;82.60;;;;;;5070955;28;20033;-71
2023/06/27 10:43:51;;;;;;;3.20;0.35;;;23.50;80.40;;;;;;5070021;28;20397;-71
2023/06/27 10:46:26;;;;;;;1.05;0.38;;;23.40;78.50;;;;;;5070773;28;20017;-71
2023/06/27 10:49:04;;;;;;;3.45;0.30;;;23.40;78.10;;;;;;5070244;28;20032;-71
2023/06/27 10:51:41;;;;;;;2.97;0.30;;;23.30;79.60;;;;;;5070747;28;20536;-71
2023/06/27 10:54:12;;;;;;;3.13;0.35;;;23.20;77.30;;;;;;5068635;28;20390;-71
2023/06/27 10:56:42;;;;;;;3.83;0.30;;;23.30;77.00;;;;;;5070593;28;20021;-71
2023/06/27 10:59:18;;;;;;;1.55;0.30;;;23.30;76.70;;;;;;5070013;28;20032;-71
2023/06/27 11:02:00;;;;;;;3.47;0.25;;;23.40;76.80;;;;;;5070337;28;20483;-71
2023/06/27 11:04:41;;;;;;;3.47;0.30;;;23.50;75.40;;;;;;5068988;28;20033;-71
2023/06/27 11:07:07;;;;;;;2.03;0.28;;;23.40;75.10;;;;;;5069882;28;20047;-71
2023/06/27 11:09:35;;;;;;;2.33;0.30;;;23.50;75.10;;;;;;5070259;28;20063;-71
2023/06/27 11:12:14;;;;;;;3.53;0.35;;;23.50;74.80;;;;;;5068698;28;20032;-71
2023/06/27 11:14:44;;;;;;;3.85;0.30;;;23.70;76.00;;;;;;5072669;28;20489;-71
2023/06/27 11:17:11;;;;;;;5.25;0.40;;;23.80;75.10;;;;;;5073381;28;20067;-71
2023/06/27 11:19:38;;;;;;;2.33;0.30;;;23.90;74.90;;;;;;5073941;28;20374;-71
2023/06/27 11:22:04;;;;;;;4.72;0.40;;;23.90;75.60;;;;;;5073393;28;20501;-71
2023/06/27 11:24:30;;;;;;;2.25;0.50;;;23.90;75.00;;;;;;5073533;28;20074;-71
2023/06/27 11:26:57;;;;;;;3.13;0.40;;;23.90;74.70;;;;;;5072224;28;20025;-71
2023/06/27 11:29:23;;;;;;;7.38;0.50;;;23.90;75.10;;;;;;5070923;28;20033;-71
2023/06/27 11:31:50;;;;;;;4.95;0.40;;;24.00;75.40;;;;;;5053630;28;20028;-72
2023/06/27 11:34:17;;;;;;;2.35;0.30;;;24.30;74.90;;;;;;5073041;28;20397;-71
2023/06/27 11:36:44;;;;;;;4.43;0.63;;;24.30;73.60;;;;;;5073705;28;20107;-71
2023/06/27 11:39:13;;;;;;;7.20;0.50;;;24.40;74.00;;;;;;5073203;28;20154;-71
2023/06/27 11:41:44;;;;;;;3.97;0.40;;;24.50;73.50;;;;;;5073016;28;20056;-71
2023/06/27 11:44:16;;;;;;;1.77;0.35;;;24.50;73.00;;;;;;5072578;28;20478;-71
2023/06/27 11:46:49;;;;;;;3.83;0.30;;;24.40;73.30;;;;;;5073036;28;20078;-71
2023/06/27 11:49:16;;;;;;;3.40;0.40;;;24.30;73.60;;;;;;5072791;28;20096;-71
2023/06/27 11:51:42;;;;;;;1.65;0.30;;;24.40;73.40;;;;;;5072941;28;20103;-71
2023/06/27 11:54:08;;;;;;;3.35;0.40;;;24.40;72.90;;;;;;5072422;28;20440;-71
2023/06/27 11:56:38;;;;;;;2.63;0.40;;;24.40;72.90;;;;;;5072591;28;20073;-71
2023/06/27 11:59:06;;;;;;;3.75;0.35;;;24.40;72.50;;;;;;5072550;28;20394;-71
2023/06/27 12:01:33;;;;;;;1.00;0.30;;;24.30;71.70;;;;;;5073004;28;20039;-71
2023/06/27 12:04:02;;;;;;;2.88;0.30;;;24.30;71.80;;;;;;5072664;28;20028;-71
2023/06/27 12:06:29;;;;;;;5.10;0.73;;;24.50;73.20;;;;;;5072498;28;20364;-71
2023/06/27 12:08:56;;;;;;;1.85;0.30;;;24.90;72.10;;;;;;5072424;28;20028;-71
2023/06/27 12:11:34;;;;;;;1.55;0.35;;;25.00;70.40;;;;;;5072310;28;20024;-71
2023/06/27 12:14:00;;;;;;;3.67;0.25;;;24.80;69.40;;;;;;5072558;28;20360;-71
2023/06/27 12:16:33;;;;;;;12.40;0.75;;;24.60;69.50;;;;;;5072683;28;20020;-71
2023/06/27 12:19:07;;;;;;;5.28;0.43;;;24.40;70.30;;;;;;5072417;28;20411;-71
2023/06/27 12:21:33;;;;;;;4.60;0.40;;;24.40;71.20;;;;;;5071836;28;20035;-72
2023/06/27 12:23:58;;;;;;;1.98;0.22;;;24.30;70.20;;;;;;5071532;28;20425;-71
2023/06/27 12:26:26;;;;;;;3.22;0.50;;;24.30;70.50;;;;;;5072410;28;20028;-71
2023/06/27 12:29:00;;;;;;;3.45;0.30;;;24.30;70.30;;;;;;5069369;28;20552;-71
2023/06/27 12:31:27;;;;;;;2.22;0.30;;;24.50;70.80;;;;;;5072311;28;20107;-71
2023/06/27 12:33:53;;;;;;;1.67;0.20;;;24.90;70.90;;;;;;5072239;28;20025;-71
2023/06/27 12:36:23;;;;;;;3.58;0.38;;;25.20;70.10;;;;;;5072377;28;20526;-71
2023/06/27 12:38:49;;;;;;;5.10;0.38;;;25.30;67.90;;;;;;5072195;28;20294;-71
2023/06/27 12:41:17;;;;;;;3.38;0.22;;;25.10;68.30;;;;;;5072176;28;20462;-71
2023/06/27 12:43:42;;;;;;;6.70;0.32;;;25.10;67.20;;;;;;5071857;28;20078;-71
2023/06/27 12:46:08;;;;;;;2.10;0.30;;;25.00;66.60;;;;;;5071846;28;20429;-72
2023/06/27 12:48:34;;;;;;;4.95;0.30;;;25.00;67.50;;;;;;5071991;28;20028;-71
2023/06/27 12:50:59;;;;;;;4.85;0.43;;;25.10;67.10;;;;;;5071727;28;20349;-71
2023/06/27 12:53:25;;;;;;;0.73;0.30;;;25.10;68.00;;;;;;5070617;28;20120;-71
2023/06/27 12:55:51;;;;;;;2.38;0.50;;;25.30;68.30;;;;;;5071918;28;20363;-71
2023/06/27 12:58:17;;;;;;;3.38;0.50;;;25.40;68.00;;;;;;5072085;28;20028;-71
2023/06/27 13:00:43;;;;;;;1.98;0.30;;;25.50;68.70;;;;;;5071854;28;20020;-71
2023/06/27 13:03:08;;;;;;;3.38;0.30;;;25.70;67.80;;;;;;5071516;28;20048;-71
2023/06/27 13:05:34;;;;;;;3.15;0.30;;;25.60;66.80;;;;;;5072000;28;20021;-72
2023/06/27 13:08:00;;;;;;;2.45;0.30;;;25.30;66.50;;;;;;5071178;28;20398;-71
2023/06/27 13:10:26;;;;;;;1.95;0.40;;;25.20;66.30;;;;;;5071610;28;20067;-71
2023/06/27 13:12:52;;;;;;;1.90;0.30;;;25.20;65.30;;;;;;5071377;28;20028;-71
2023/06/27 13:15:18;;;;;;;2.42;0.30;;;25.10;64.40;;;;;;5073238;28;20100;-71
2023/06/27 13:17:45;;;;;;;5.40;0.50;;;25.10;65.20;;;;;;5070807;28;20115;-71
2023/06/27 13:20:12;;;;;;;2.70;0.38;;;25.20;64.70;;;;;;5071236;28;20023;-71
2023/06/27 13:22:39;;;;;;;2.85;0.50;;;25.10;64.70;;;;;;5071207;28;20028;-71
2023/06/27 13:25:05;;;;;;;1.77;0.30;;;24.90;64.80;;;;;;5071025;28;20067;-71
2023/06/27 13:27:33;;;;;;;1.63;0.30;;;24.80;65.00;;;;;;5066793;28;20475;-72
2023/06/27 13:29:59;;;;;;;2.65;0.30;;;24.70;65.10;;;;;;5064650;28;20024;-71
2023/06/27 13:32:24;;;;;;;2.03;0.32;;;24.70;65.50;;;;;;5071341;28;20052;-72
2023/06/27 13:34:50;;;;;;;4.55;0.40;;;24.70;66.10;;;;;;5070898;28;20103;-70
2023/06/27 13:37:16;;;;;;;3.45;0.35;;;24.80;65.50;;;;;;5070303;28;20086;-70
2023/06/27 13:39:42;;;;;;;3.75;0.40;;;24.80;65.10;;;;;;5071264;28;20085;-72
2023/06/27 13:42:09;;;;;;;5.07;0.75;;;24.60;65.10;;;;;;5070799;28;20064;-71
2023/06/27 13:44:34;;;;;;;3.15;0.30;;;24.70;65.80;;;;;;5071073;28;20016;-72
2023/06/27 13:47:00;;;;;;;2.55;0.30;;;24.80;65.70;;;;;;5070903;28;20518;-71
2023/06/27 13:49:27;;;;;;;3.17;0.60;;;24.80;65.80;;;;;;5071066;28;20021;-71
2023/06/27 13:51:53;;;;;;;3.03;0.75;;;24.70;65.30;;;;;;5070353;28;20378;-71
2023/06/27 13:54:19;;;;;;;4.30;0.35;;;24.60;65.90;;;;;;5069852;28;20029;-71
2023/06/27 13:56:45;;;;;;;3.83;0.40;;;24.70;66.10;;;;;;5070901;28;20078;-71
2023/06/27 13:59:11;;;;;;;6.10;0.40;;;24.80;66.10;;;;;;5069435;28;20482;-71
2023/06/27 14:01:37;;;;;;;4.38;0.60;;;24.80;65.90;;;;;;5070771;28;20055;-71
2023/06/27 14:04:03;;;;;;;4.03;0.40;;;24.70;65.80;;;;;;5070722;28;20020;-71
2023/06/27 14:06:29;;;;;;;1.92;0.30;;;24.80;66.30;;;;;;5070756;28;20039;-72
2023/06/27 14:08:55;;;;;;;2.55;0.40;;;25.10;66.20;;;;;;5070540;28;20027;-71
2023/06/27 14:11:21;;;;;;;2.30;0.40;;;25.20;66.00;;;;;;5070706;28;20025;-72
2023/06/27 14:13:50;;;;;;;4.95;0.45;;;25.30;65.50;;;;;;5070864;28;20398;-71
2023/06/27 14:16:17;;;;;;;4.38;0.40;;;25.30;65.50;;;;;;5070894;28;20021;-71
2023/06/27 14:18:43;;;;;;;2.63;0.40;;;25.50;65.80;;;;;;5070707;28;20027;-71
2023/06/27 14:21:09;;;;;;;1.88;0.40;;;25.40;64.80;;;;;;5070133;28;20039;-70
2023/06/27 14:23:39;;;;;;;3.78;0.43;;;25.40;65.50;;;;;;5070389;28;20120;-71
2023/06/27 14:26:06;;;;;;;2.35;0.40;;;25.40;64.80;;;;;;5061230;28;20080;-71
2023/06/27 14:28:32;;;;;;;3.28;0.60;;;25.40;64.80;;;;;;5057884;28;20478;-70
2023/06/27 14:31:02;;;;;;;3.25;0.43;;;25.50;65.30;;;;;;5070087;28;20035;-72
2023/06/27 14:33:28;;;;;;;3.65;0.68;;;25.50;64.00;;;;;;5070699;28;20020;-71
2023/06/27 14:35:55;;;;;;;3.28;0.55;;;25.50;64.50;;;;;;5070353;28;20482;-71
2023/06/27 14:38:22;;;;;;;2.95;0.55;;;25.50;65.20;;;;;;5070585;28;20028;-71
2023/06/27 14:40:48;;;;;;;5.05;0.50;;;25.60;64.90;;;;;;5070783;28;20074;-71
2023/06/27 14:43:14;;;;;;;4.63;0.65;;;25.60;64.30;;;;;;5070451;28;20036;-71
2023/06/27 14:45:41;;;;;;;3.13;0.40;;;25.40;64.50;;;;;;5070625;28;20494;-71
2023/06/27 14:48:07;;;;;;;2.42;0.45;;;25.10;64.50;;;;;;5071720;28;20103;-71
2023/06/27 14:50:35;;;;;;;2.92;0.60;;;24.80;64.10;;;;;;5074225;28;20024;-71
2023/06/27 14:53:02;;;;;;;5.70;0.40;;;24.60;64.20;;;;;;5073838;28;20020;-71
2023/06/27 14:55:27;;;;;;;2.78;0.30;;;24.50;64.10;;;;;;5074514;28;20384;-71
2023/06/27 14:57:53;;;;;;;3.47;0.30;;;24.40;64.60;;;;;;5072658;28;20033;-71
2023/06/27 15:00:19;;;;;;;3.58;0.30;;;24.40;64.40;;;;;;5073986;28;20056;-71
2023/06/27 15:02:45;;;;;;;2.55;0.40;;;24.30;64.60;;;;;;5074522;28;20048;-71
2023/06/27 15:05:11;;;;;;;3.25;0.50;;;24.50;65.10;;;;;;5074020;28;20107;-71
2023/06/27 15:07:37;;;;;;;3.25;0.47;;;24.80;65.40;;;;;;5074296;28;20603;-71
2023/06/27 15:10:03;;;;;;;5.50;0.40;;;25.20;64.50;;;;;;5072129;28;20032;-72
2023/06/27 15:12:29;;;;;;;4.13;0.47;;;25.50;63.80;;;;;;5074008;28;20020;-71